Time;durP1;ratioP1;P1;durP2;ratioP2;P2;SDS_P1;SDS_P2;PMS_P1;PMS_P2;Temp;Humidity;BMP_temperature;BMP_pressure;BME280_temperature;BME280_humidity;BME280_pressure;Samples;Min_cycle;Max_cycle;Signal;HPM_P1;HPM_P2
2021/11/23 00:00:58;;;;;;;1.42;0.82;;;21.40;51.40;;;;;;5029177;28;20064;-59
2021/11/23 00:03:24;;;;;;;1.10;0.70;;;21.40;51.50;;;;;;5033226;28;20509;-57
2021/11/23 00:05:50;;;;;;;1.92;0.80;;;21.40;51.50;;;;;;5027344;28;20033;-58
2021/11/23 00:08:17;;;;;;;1.27;0.80;;;21.30;51.50;;;;;;5030190;28;20052;-60
2021/11/23 00:10:46;;;;;;;1.60;0.90;;;21.40;51.50;;;;;;5031529;28;20163;-57
2021/11/23 00:13:13;;;;;;;1.95;0.80;;;21.30;51.50;;;;;;5035623;28;20547;-59
2021/11/23 00:15:40;;;;;;;1.30;0.80;;;21.30;51.50;;;;;;5040786;28;20098;-59
2021/11/23 00:18:11;;;;;;;1.58;0.80;;;21.30;51.50;;;;;;5030798;28;20079;-55
2021/11/23 00:20:40;;;;;;;1.15;0.70;;;21.30;51.60;;;;;;5033808;28;20127;-59
2021/11/23 00:23:06;;;;;;;1.67;0.80;;;21.30;51.60;;;;;;5032683;28;20051;-59
2021/11/23 00:25:32;;;;;;;1.55;0.73;;;21.20;51.50;;;;;;5027056;28;20042;-59
2021/11/23 00:27:58;;;;;;;1.90;0.90;;;21.20;51.60;;;;;;5028817;28;20606;-60
2021/11/23 00:30:24;;;;;;;1.70;0.88;;;21.20;51.60;;;;;;5032057;28;20052;-58
2021/11/23 00:32:51;;;;;;;1.23;0.80;;;21.20;51.70;;;;;;5037129;28;20029;-59
2021/11/23 00:35:18;;;;;;;1.17;0.70;;;21.20;51.70;;;;;;5032472;28;20066;-59
2021/11/23 00:37:46;;;;;;;1.83;0.80;;;21.20;51.70;;;;;;5030581;28;20150;-59
2021/11/23 00:40:12;;;;;;;1.25;0.70;;;21.20;51.70;;;;;;5031607;28;20056;-56
2021/11/23 00:42:38;;;;;;;1.33;0.80;;;21.10;51.70;;;;;;5038886;28;20138;-59
2021/11/23 00:45:05;;;;;;;1.85;0.80;;;21.10;51.70;;;;;;5037909;28;20105;-60
2021/11/23 00:47:30;;;;;;;1.00;0.80;;;21.10;51.70;;;;;;5031010;28;20481;-56
2021/11/23 00:49:56;;;;;;;1.00;0.70;;;21.10;51.70;;;;;;5035448;28;20029;-57
2021/11/23 00:52:22;;;;;;;1.35;0.77;;;21.10;51.80;;;;;;5038151;28;20056;-58
2021/11/23 00:54:47;;;;;;;1.00;0.70;;;21.10;51.80;;;;;;5033044;28;20068;-58
2021/11/23 00:57:13;;;;;;;1.67;0.70;;;21.10;51.80;;;;;;5041665;28;20067;-61
2021/11/23 00:59:39;;;;;;;0.80;0.60;;;21.10;51.80;;;;;;5034411;28;20044;-59
2021/11/23 01:02:05;;;;;;;1.25;0.70;;;21.00;51.80;;;;;;5033876;28;20041;-55
2021/11/23 01:04:32;;;;;;;0.90;0.60;;;21.00;51.80;;;;;;5031326;28;20101;-59
2021/11/23 01:06:58;;;;;;;0.82;0.63;;;21.00;51.80;;;;;;5036386;28;20040;-59
2021/11/23 01:09:24;;;;;;;2.05;0.80;;;21.00;51.80;;;;;;5032959;28;20029;-58
2021/11/23 01:11:50;;;;;;;1.65;0.90;;;21.00;51.90;;;;;;5038477;28;20405;-60
2021/11/23 01:14:16;;;;;;;1.15;0.65;;;21.00;51.90;;;;;;5035400;28;20063;-60
2021/11/23 01:16:44;;;;;;;1.20;0.70;;;20.90;51.80;;;;;;5039929;28;20429;-59
2021/11/23 01:19:11;;;;;;;1.08;0.77;;;20.90;51.90;;;;;;5038214;28;20040;-58
2021/11/23 01:21:37;;;;;;;1.63;0.75;;;20.90;51.90;;;;;;5035578;28;20678;-60
2021/11/23 01:24:04;;;;;;;1.48;0.75;;;20.90;51.90;;;;;;5033052;28;20211;-59
2021/11/23 01:26:29;;;;;;;0.77;0.60;;;20.90;51.90;;;;;;5034942;28;20090;-60
2021/11/23 01:28:55;;;;;;;1.15;0.65;;;20.90;52.00;;;;;;5034993;28;20025;-58
2021/11/23 01:31:21;;;;;;;1.20;0.80;;;20.90;52.00;;;;;;5035710;28;20037;-59
2021/11/23 01:33:47;;;;;;;1.15;0.70;;;20.90;52.00;;;;;;5036511;28;20452;-58
2021/11/23 01:36:12;;;;;;;1.13;0.73;;;20.90;52.00;;;;;;5030459;28;20072;-59
2021/11/23 01:38:40;;;;;;;1.55;0.90;;;20.90;52.00;;;;;;5033684;28;20036;-60
2021/11/23 01:41:07;;;;;;;1.25;0.80;;;20.80;52.00;;;;;;5040994;28;20132;-58
2021/11/23 01:43:32;;;;;;;1.63;0.80;;;20.90;52.00;;;;;;5033190;28;20036;-59
2021/11/23 01:45:58;;;;;;;0.98;0.70;;;20.80;52.00;;;;;;5038139;28;20652;-59
2021/11/23 01:48:24;;;;;;;1.45;0.80;;;20.80;52.00;;;;;;5032903;28;20461;-61
2021/11/23 01:50:50;;;;;;;1.13;0.90;;;20.80;52.00;;;;;;5036881;28;20041;-59
2021/11/23 01:53:16;;;;;;;1.17;0.80;;;20.80;52.00;;;;;;5039613;28;20113;-55
2021/11/23 01:55:42;;;;;;;0.85;0.60;;;20.80;52.00;;;;;;5031753;28;20120;-60
2021/11/23 01:58:11;;;;;;;1.00;0.70;;;20.80;52.10;;;;;;5034219;28;20107;-53
2021/11/23 02:00:37;;;;;;;1.33;0.80;;;20.80;52.00;;;;;;5034871;28;20095;-59
2021/11/23 02:03:03;;;;;;;0.77;0.63;;;20.70;52.00;;;;;;5029237;28;20029;-58
2021/11/23 02:05:28;;;;;;;0.70;0.60;;;20.70;52.00;;;;;;5035454;28;20441;-60
2021/11/23 02:07:54;;;;;;;1.30;0.70;;;20.80;52.10;;;;;;5035929;28;20799;-59
2021/11/23 02:10:21;;;;;;;1.50;0.85;;;20.70;52.10;;;;;;5037975;28;20028;-59
2021/11/23 02:12:48;;;;;;;1.35;0.70;;;20.70;52.10;;;;;;5036098;28;20168;-57
2021/11/23 02:15:13;;;;;;;0.60;0.60;;;20.70;52.10;;;;;;5034606;28;20029;-59
2021/11/23 02:17:42;;;;;;;1.45;0.60;;;20.70;52.10;;;;;;5036156;28;20131;-59
2021/11/23 02:20:13;;;;;;;1.20;0.68;;;20.70;52.10;;;;;;5034546;28;20037;-53
2021/11/23 02:22:39;;;;;;;0.80;0.60;;;20.70;52.10;;;;;;5037573;28;20064;-59
2021/11/23 02:25:06;;;;;;;1.73;0.70;;;20.70;52.10;;;;;;5037501;28;20041;-59
2021/11/23 02:27:32;;;;;;;0.90;0.60;;;20.70;52.10;;;;;;5038367;28;20133;-59
2021/11/23 02:29:57;;;;;;;1.20;0.63;;;20.70;52.10;;;;;;5035685;28;20658;-59
2021/11/23 02:32:23;;;;;;;1.45;0.70;;;20.60;52.10;;;;;;5034107;28;20243;-51
2021/11/23 02:34:49;;;;;;;0.82;0.60;;;20.60;52.10;;;;;;5034278;28;20037;-59
2021/11/23 02:37:14;;;;;;;1.00;0.60;;;20.60;52.10;;;;;;5034000;28;20040;-58
2021/11/23 02:39:40;;;;;;;1.13;0.60;;;20.60;52.10;;;;;;5033492;28;20021;-58
2021/11/23 02:42:07;;;;;;;1.20;0.75;;;20.60;52.10;;;;;;5034369;28;20401;-59
2021/11/23 02:44:41;;;;;;;1.02;0.70;;;20.60;52.10;;;;;;5033562;28;20029;-54
2021/11/23 02:47:07;;;;;;;1.05;0.70;;;20.60;52.10;;;;;;5035311;28;20104;-59
2021/11/23 02:49:32;;;;;;;0.85;0.60;;;20.60;52.60;;;;;;5038252;28;20036;-57
2021/11/23 02:51:59;;;;;;;1.13;0.70;;;20.60;52.20;;;;;;5034576;28;20026;-59
2021/11/23 02:54:24;;;;;;;0.85;0.60;;;20.60;52.10;;;;;;5029391;28;20030;-59
2021/11/23 02:56:50;;;;;;;0.50;0.50;;;20.60;52.20;;;;;;5033759;28;20028;-58
2021/11/23 02:59:15;;;;;;;0.70;0.55;;;20.60;52.20;;;;;;5031694;28;20037;-55
2021/11/23 03:01:41;;;;;;;0.73;0.55;;;20.50;52.20;;;;;;5032749;28;20099;-59
2021/11/23 03:04:07;;;;;;;0.60;0.50;;;20.50;52.10;;;;;;5033979;28;20049;-55
2021/11/23 03:06:32;;;;;;;0.98;0.70;;;20.50;52.20;;;;;;5032368;28;20481;-59
2021/11/23 03:08:58;;;;;;;0.60;0.60;;;20.50;52.20;;;;;;5034753;28;20029;-60
2021/11/23 03:11:24;;;;;;;1.02;0.70;;;20.50;52.20;;;;;;5030446;28;20703;-56
2021/11/23 03:13:50;;;;;;;0.90;0.65;;;20.50;52.20;;;;;;5027536;28;20033;-58
2021/11/23 03:16:16;;;;;;;0.98;0.65;;;20.50;52.20;;;;;;5037518;28;20960;-59
2021/11/23 03:18:41;;;;;;;1.00;0.70;;;20.50;52.20;;;;;;5032119;28;20038;-56
2021/11/23 03:21:07;;;;;;;0.65;0.57;;;20.50;52.20;;;;;;5033637;28;20029;-59
2021/11/23 03:23:33;;;;;;;1.00;0.70;;;20.50;52.20;;;;;;5034459;28;20039;-59
2021/11/23 03:25:59;;;;;;;0.75;0.65;;;20.50;52.20;;;;;;5035194;28;20037;-59
2021/11/23 03:28:25;;;;;;;0.70;0.60;;;20.40;52.20;;;;;;5032025;28;20038;-58
2021/11/23 03:30:51;;;;;;;1.13;0.70;;;20.40;52.20;;;;;;5036280;28;20037;-59
2021/11/23 03:33:16;;;;;;;1.27;0.60;;;20.40;52.20;;;;;;5034965;28;20052;-58
2021/11/23 03:35:44;;;;;;;0.70;0.50;;;20.40;52.20;;;;;;5033322;28;20033;-59
2021/11/23 03:38:12;;;;;;;0.90;0.60;;;20.40;52.20;;;;;;5032624;28;20044;-59
2021/11/23 03:40:39;;;;;;;1.13;0.60;;;20.40;52.20;;;;;;5027728;28;20082;-58
2021/11/23 03:43:07;;;;;;;0.75;0.60;;;20.40;52.20;;;;;;5034884;28;20028;-58
2021/11/23 03:45:33;;;;;;;0.80;0.60;;;20.40;52.20;;;;;;5033579;28;20060;-58
2021/11/23 03:48:00;;;;;;;0.77;0.60;;;20.40;52.20;;;;;;5040173;28;20026;-59
2021/11/23 03:50:27;;;;;;;0.80;0.60;;;20.40;52.20;;;;;;5035679;28;20078;-57
2021/11/23 03:52:53;;;;;;;0.88;0.70;;;20.40;52.20;;;;;;5033758;28;20155;-59
2021/11/23 03:55:21;;;;;;;0.88;0.70;;;20.40;52.20;;;;;;5031724;28;20104;-55
2021/11/23 03:57:48;;;;;;;0.90;0.70;;;20.40;52.30;;;;;;5031876;28;20046;-59
2021/11/23 04:00:16;;;;;;;1.60;0.60;;;20.40;52.30;;;;;;5028616;28;20032;-60
2021/11/23 04:02:42;;;;;;;0.80;0.60;;;20.40;52.30;;;;;;5031633;28;20349;-58
2021/11/23 04:05:08;;;;;;;1.20;0.82;;;20.40;52.30;;;;;;5029719;28;20030;-58
2021/11/23 04:07:36;;;;;;;0.73;0.60;;;20.40;52.30;;;;;;5030647;28;20445;-56
2021/11/23 04:10:04;;;;;;;0.70;0.65;;;20.30;52.30;;;;;;5037068;28;20017;-55
2021/11/23 04:12:29;;;;;;;0.73;0.60;;;20.40;52.30;;;;;;5031374;28;20013;-56
2021/11/23 04:14:55;;;;;;;0.77;0.57;;;20.30;52.30;;;;;;5034231;28;20021;-58
2021/11/23 04:17:20;;;;;;;0.93;0.50;;;20.30;52.30;;;;;;5035351;28;20033;-57
2021/11/23 04:19:46;;;;;;;1.13;0.60;;;20.40;52.30;;;;;;5033874;28;20167;-56
2021/11/23 04:22:12;;;;;;;1.13;0.60;;;20.30;52.30;;;;;;5030318;28;20135;-53
2021/11/23 04:24:37;;;;;;;1.02;0.68;;;20.30;52.30;;;;;;5028562;28;20412;-59
2021/11/23 04:27:03;;;;;;;0.75;0.52;;;20.30;52.30;;;;;;5031909;28;20127;-59
2021/11/23 04:29:29;;;;;;;1.02;0.70;;;20.30;52.30;;;;;;5036146;28;20050;-59
2021/11/23 04:31:54;;;;;;;0.65;0.50;;;20.30;52.30;;;;;;5033363;28;20051;-57
2021/11/23 04:34:20;;;;;;;0.98;0.50;;;20.30;52.40;;;;;;5030288;28;20040;-58
2021/11/23 04:36:46;;;;;;;0.60;0.57;;;20.30;52.30;;;;;;5035200;28;20033;-58
2021/11/23 04:39:12;;;;;;;0.65;0.60;;;20.30;52.30;;;;;;5027445;28;20033;-57
2021/11/23 04:41:42;;;;;;;1.77;0.60;;;20.30;52.30;;;;;;5031610;28;20033;-59
2021/11/23 04:44:08;;;;;;;0.50;0.50;;;20.30;52.40;;;;;;5033149;28;20115;-59
2021/11/23 04:46:34;;;;;;;0.77;0.57;;;20.30;52.30;;;;;;5030520;28;20044;-58
2021/11/23 04:49:00;;;;;;;0.77;0.60;;;20.30;52.30;;;;;;5032921;28;20033;-59
2021/11/23 04:51:26;;;;;;;0.43;0.43;;;20.30;52.30;;;;;;5036470;28;20032;-57
2021/11/23 04:53:52;;;;;;;0.73;0.50;;;20.30;52.30;;;;;;5032476;28;20040;-57
2021/11/23 04:56:18;;;;;;;0.75;0.60;;;20.30;52.30;;;;;;5029230;28;20406;-56
2021/11/23 04:58:44;;;;;;;1.50;0.50;;;20.30;52.30;;;;;;5033319;28;20485;-58
2021/11/23 05:01:10;;;;;;;0.43;0.40;;;20.30;52.30;;;;;;5028494;28;20060;-58
2021/11/23 05:03:35;;;;;;;0.75;0.60;;;20.30;52.30;;;;;;5031429;28;20409;-59
2021/11/23 05:06:01;;;;;;;0.52;0.50;;;20.30;52.30;;;;;;5030405;28;20029;-56
2021/11/23 05:08:27;;;;;;;0.70;0.50;;;20.30;52.40;;;;;;5031021;28;20599;-58
2021/11/23 05:10:52;;;;;;;0.85;0.60;;;20.30;52.40;;;;;;5029818;28;20210;-58
2021/11/23 05:13:18;;;;;;;0.60;0.60;;;20.30;52.40;;;;;;5035185;28;20031;-52
2021/11/23 05:15:43;;;;;;;1.00;0.70;;;20.30;52.40;;;;;;5031889;28;20048;-58
2021/11/23 05:18:09;;;;;;;0.60;0.55;;;20.30;52.50;;;;;;5032587;28;20489;-52
2021/11/23 05:20:35;;;;;;;0.50;0.50;;;20.30;52.50;;;;;;5029455;28;20173;-59
2021/11/23 05:23:01;;;;;;;0.95;0.55;;;20.20;52.50;;;;;;5034207;28;20051;-57
2021/11/23 05:25:27;;;;;;;1.58;0.77;;;20.20;52.50;;;;;;5027839;28;20414;-56
2021/11/23 05:27:52;;;;;;;1.17;0.60;;;20.20;52.50;;;;;;5034403;28;20355;-58
2021/11/23 05:30:18;;;;;;;0.75;0.55;;;20.20;52.50;;;;;;5037323;28;20166;-59
2021/11/23 05:32:44;;;;;;;0.73;0.50;;;20.20;52.50;;;;;;5038506;28;20112;-58
2021/11/23 05:35:11;;;;;;;1.02;0.60;;;20.20;52.60;;;;;;5035198;28;20496;-51
2021/11/23 05:37:36;;;;;;;0.95;0.60;;;20.20;52.50;;;;;;5039028;28;20098;-58
2021/11/23 05:40:03;;;;;;;1.83;0.60;;;20.20;52.60;;;;;;5034510;28;20033;-54
2021/11/23 05:42:29;;;;;;;1.08;0.60;;;20.20;52.60;;;;;;5041377;28;20033;-57
2021/11/23 05:44:55;;;;;;;0.68;0.50;;;20.20;52.50;;;;;;5040375;28;20036;-53
2021/11/23 05:47:21;;;;;;;0.60;0.60;;;20.20;52.60;;;;;;5036803;28;20824;-58
2021/11/23 05:49:46;;;;;;;0.88;0.60;;;20.20;52.50;;;;;;5032945;28;20521;-57
2021/11/23 05:52:12;;;;;;;1.40;0.55;;;20.20;52.60;;;;;;5036217;28;20022;-58
2021/11/23 05:54:38;;;;;;;0.60;0.60;;;20.20;52.50;;;;;;5031501;28;20100;-58
2021/11/23 05:57:04;;;;;;;0.82;0.60;;;20.20;52.50;;;;;;5037296;28;20067;-55
2021/11/23 05:59:29;;;;;;;1.10;0.70;;;20.20;52.50;;;;;;5039446;28;20025;-59
2021/11/23 06:01:55;;;;;;;0.90;0.65;;;20.20;52.50;;;;;;5030229;28;20250;-57
2021/11/23 06:04:21;;;;;;;1.08;0.60;;;20.20;52.50;;;;;;5034579;28;20029;-59
2021/11/23 06:06:47;;;;;;;0.80;0.65;;;20.20;52.50;;;;;;5037955;28;20034;-57
2021/11/23 06:09:13;;;;;;;0.93;0.60;;;20.20;52.50;;;;;;5035697;28;20472;-53
2021/11/23 06:11:39;;;;;;;0.95;0.50;;;20.10;52.50;;;;;;5033665;28;20025;-56
2021/11/23 06:14:04;;;;;;;0.95;0.65;;;20.20;52.50;;;;;;5038170;28;20024;-59
2021/11/23 06:16:32;;;;;;;0.98;0.60;;;20.10;52.50;;;;;;5039402;28;20040;-57
2021/11/23 06:18:57;;;;;;;1.13;0.70;;;20.10;52.50;;;;;;5033346;28;20033;-53
2021/11/23 06:21:25;;;;;;;0.60;0.50;;;20.20;53.40;;;;;;5031110;28;20060;-58
2021/11/23 06:23:51;;;;;;;1.38;0.70;;;20.40;53.90;;;;;;5036594;28;20041;-57
2021/11/23 06:26:18;;;;;;;0.80;0.60;;;20.60;54.10;;;;;;5034493;28;20029;-58
2021/11/23 06:28:44;;;;;;;1.00;0.70;;;20.90;54.00;;;;;;5033983;28;20076;-50
2021/11/23 06:31:10;;;;;;;2.25;0.70;;;21.10;53.90;;;;;;5039859;28;20052;-58
2021/11/23 06:33:36;;;;;;;1.48;0.75;;;21.30;53.70;;;;;;5040607;28;20409;-57
2021/11/23 06:36:01;;;;;;;0.73;0.70;;;21.40;53.70;;;;;;5035885;28;20036;-53
2021/11/23 06:38:27;;;;;;;1.65;0.70;;;21.60;53.40;;;;;;5032946;28;20473;-55
2021/11/23 06:40:53;;;;;;;1.08;0.70;;;21.70;53.40;;;;;;5030354;28;20028;-59
2021/11/23 06:43:18;;;;;;;0.77;0.60;;;21.80;53.30;;;;;;5035929;28;20033;-58
2021/11/23 06:45:44;;;;;;;1.40;0.60;;;22.00;53.10;;;;;;5037930;28;20508;-54
2021/11/23 06:48:11;;;;;;;0.82;0.50;;;22.10;53.10;;;;;;5038318;28;20025;-53
2021/11/23 06:50:40;;;;;;;1.08;0.50;;;22.30;52.90;;;;;;5033046;28;20056;-57
2021/11/23 06:53:09;;;;;;;0.30;0.30;;;22.40;52.80;;;;;;5034473;28;20047;-57
2021/11/23 06:55:36;;;;;;;0.40;0.40;;;22.50;52.40;;;;;;5032428;28;20037;-56
2021/11/23 06:58:01;;;;;;;0.50;0.40;;;22.50;52.20;;;;;;5033030;28;20108;-58
2021/11/23 07:00:27;;;;;;;0.38;0.38;;;22.50;52.30;;;;;;5041870;28;20143;-56
2021/11/23 07:02:53;;;;;;;0.75;0.40;;;22.40;52.40;;;;;;5031240;28;20696;-57
2021/11/23 07:05:19;;;;;;;0.40;0.40;;;22.40;52.50;;;;;;5033364;28;20459;-56
2021/11/23 07:07:45;;;;;;;0.40;0.40;;;22.40;52.70;;;;;;5032493;28;20034;-58
2021/11/23 07:10:12;;;;;;;0.60;0.40;;;22.30;52.60;;;;;;5033079;28;20025;-57
2021/11/23 07:12:41;;;;;;;0.40;0.40;;;22.30;52.60;;;;;;5039406;28;20037;-57
2021/11/23 07:15:08;;;;;;;0.50;0.50;;;22.30;53.00;;;;;;5035931;28;20037;-55
2021/11/23 07:17:34;;;;;;;0.82;0.55;;;22.40;53.10;;;;;;5032821;28;20457;-56
2021/11/23 07:19:59;;;;;;;0.73;0.50;;;22.40;53.10;;;;;;5035499;28;20103;-55
2021/11/23 07:22:25;;;;;;;0.80;0.40;;;22.40;53.10;;;;;;5031088;28;20048;-57
2021/11/23 07:24:51;;;;;;;1.55;0.60;;;22.40;53.10;;;;;;5033737;28;20034;-58
2021/11/23 07:27:18;;;;;;;0.95;0.50;;;22.40;53.10;;;;;;5033976;28;20037;-55
2021/11/23 07:29:43;;;;;;;0.60;0.50;;;22.40;53.00;;;;;;5034427;28;20108;-59
2021/11/23 07:32:11;;;;;;;0.40;0.40;;;22.50;53.20;;;;;;5035084;28;20128;-56
2021/11/23 07:34:37;;;;;;;0.60;0.40;;;22.50;53.20;;;;;;5043490;28;20034;-58
2021/11/23 07:37:03;;;;;;;0.40;0.40;;;22.50;53.10;;;;;;5032547;28;20192;-56
2021/11/23 07:39:28;;;;;;;0.63;0.45;;;22.50;53.10;;;;;;5029273;28;20200;-58
2021/11/23 07:41:54;;;;;;;0.70;0.40;;;22.50;53.00;;;;;;5034210;28;20024;-57
2021/11/23 07:44:20;;;;;;;0.50;0.50;;;22.50;53.00;;;;;;5032031;28;20057;-55
2021/11/23 07:46:46;;;;;;;0.70;0.50;;;22.60;53.10;;;;;;5033541;28;20137;-57
2021/11/23 07:49:12;;;;;;;0.60;0.50;;;22.60;52.90;;;;;;5031173;28;20104;-54
2021/11/23 07:51:37;;;;;;;1.00;0.70;;;22.60;50.50;;;;;;5035081;28;20185;-56
2021/11/23 07:54:04;;;;;;;1.13;0.70;;;22.60;50.00;;;;;;5027836;28;20136;-55
2021/11/23 07:56:29;;;;;;;0.93;0.70;;;22.60;50.30;;;;;;5034849;28;20036;-57
2021/11/23 07:58:55;;;;;;;1.95;0.70;;;22.60;49.50;;;;;;5033681;28;20025;-54
2021/11/23 08:01:21;;;;;;;1.20;0.50;;;22.60;49.60;;;;;;5029892;28;20469;-59
2021/11/23 08:03:46;;;;;;;2.33;0.60;;;22.60;49.30;;;;;;5032654;28;20033;-58
2021/11/23 08:06:12;;;;;;;1.55;0.80;;;22.60;49.40;;;;;;5025971;28;20037;-56
2021/11/23 08:08:39;;;;;;;1.42;0.70;;;22.60;49.10;;;;;;5031500;28;20727;-58
2021/11/23 08:11:08;;;;;;;1.13;0.60;;;22.60;49.30;;;;;;5033074;28;20408;-58
2021/11/23 08:13:34;;;;;;;0.95;0.70;;;22.60;49.00;;;;;;5030498;28;20053;-59
2021/11/23 08:16:03;;;;;;;1.05;0.88;;;22.60;49.10;;;;;;5033249;28;20572;-57
2021/11/23 08:18:30;;;;;;;0.98;0.60;;;22.60;49.10;;;;;;5032914;28;20029;-59
2021/11/23 08:20:56;;;;;;;2.17;0.70;;;22.60;49.10;;;;;;5036433;28;20119;-58
2021/11/23 08:23:21;;;;;;;0.98;0.80;;;22.60;49.00;;;;;;5032695;28;20176;-56
2021/11/23 08:25:47;;;;;;;1.00;0.80;;;22.60;49.00;;;;;;5029104;28;20036;-57
2021/11/23 08:28:13;;;;;;;1.48;0.73;;;22.60;49.00;;;;;;5029986;28;20020;-61
2021/11/23 08:30:39;;;;;;;0.98;0.70;;;22.60;49.00;;;;;;5030894;28;20041;-58
2021/11/23 08:33:05;;;;;;;1.52;0.70;;;22.60;49.00;;;;;;5033167;28;20028;-57
2021/11/23 08:35:30;;;;;;;0.85;0.70;;;22.60;49.10;;;;;;5033717;28;20036;-58
2021/11/23 08:37:56;;;;;;;2.38;0.70;;;22.60;49.00;;;;;;5035087;28;20040;-59
2021/11/23 08:40:22;;;;;;;1.10;0.70;;;22.60;49.00;;;;;;5027923;28;20029;-59
2021/11/23 08:42:48;;;;;;;0.65;0.55;;;22.60;49.00;;;;;;5029976;28;20029;-58
2021/11/23 08:45:13;;;;;;;1.52;0.70;;;22.60;49.10;;;;;;5034571;28;20036;-59
2021/11/23 08:47:39;;;;;;;0.75;0.70;;;22.60;49.10;;;;;;5033165;28;20098;-60
2021/11/23 08:50:07;;;;;;;1.42;0.70;;;22.60;49.10;;;;;;5035845;28;20026;-59
2021/11/23 08:52:37;;;;;;;0.60;0.50;;;22.60;49.00;;;;;;5027694;28;20102;-59
2021/11/23 08:55:04;;;;;;;0.90;0.70;;;22.60;49.00;;;;;;5030264;28;20057;-57
2021/11/23 08:57:30;;;;;;;1.20;0.60;;;22.60;49.10;;;;;;5031299;28;20025;-60
2021/11/23 09:00:10;;;;;;;0.68;0.55;;;22.60;49.10;;;;;;5033028;28;20385;-53
2021/11/23 09:02:38;;;;;;;1.42;0.63;;;22.60;49.20;;;;;;5035145;28;20136;-59
2021/11/23 09:05:05;;;;;;;0.52;0.52;;;22.60;49.20;;;;;;5036343;28;20021;-59
2021/11/23 09:07:30;;;;;;;0.80;0.60;;;22.60;49.20;;;;;;5036225;28;20052;-59
2021/11/23 09:09:56;;;;;;;0.93;0.60;;;22.60;49.80;;;;;;5032689;28;20268;-58
2021/11/23 09:12:22;;;;;;;0.85;0.60;;;22.60;49.20;;;;;;5034477;28;20148;-59
2021/11/23 09:14:47;;;;;;;1.25;0.70;;;22.60;49.20;;;;;;5038110;28;20784;-60
2021/11/23 09:17:13;;;;;;;1.33;0.75;;;22.60;49.20;;;;;;5038840;28;20033;-58
2021/11/23 09:19:40;;;;;;;0.55;0.55;;;22.60;49.20;;;;;;5036208;28;20443;-60
2021/11/23 09:22:06;;;;;;;0.90;0.60;;;22.60;49.20;;;;;;5034360;28;20047;-58
2021/11/23 09:24:32;;;;;;;0.95;0.70;;;22.60;49.30;;;;;;5033891;28;20029;-59
2021/11/23 09:26:58;;;;;;;0.60;0.50;;;22.60;49.30;;;;;;5033224;28;20100;-59
2021/11/23 09:29:23;;;;;;;0.90;0.60;;;22.60;49.30;;;;;;5035468;28;20108;-59
2021/11/23 09:31:50;;;;;;;0.85;0.60;;;22.60;49.30;;;;;;5036740;28;20118;-57
2021/11/23 09:34:16;;;;;;;1.35;0.70;;;22.60;49.30;;;;;;5033672;28;20021;-57
2021/11/23 09:36:43;;;;;;;1.08;0.70;;;22.60;49.30;;;;;;5034071;28;20116;-60
2021/11/23 09:39:10;;;;;;;0.90;0.60;;;22.70;49.30;;;;;;5033787;28;20036;-60
2021/11/23 09:41:37;;;;;;;0.90;0.60;;;22.60;49.30;;;;;;5034302;28;20037;-59
2021/11/23 09:44:05;;;;;;;1.40;0.80;;;22.60;49.40;;;;;;5035241;28;20460;-57
2021/11/23 09:46:36;;;;;;;1.23;0.73;;;22.60;49.40;;;;;;5034241;28;20033;-57
2021/11/23 09:49:03;;;;;;;0.82;0.43;;;22.60;49.40;;;;;;5033603;28;20076;-59
2021/11/23 09:51:29;;;;;;;1.00;0.70;;;22.60;49.40;;;;;;5034160;28;20025;-59
2021/11/23 09:53:57;;;;;;;0.73;0.60;;;22.60;49.40;;;;;;5039837;28;20027;-59
2021/11/23 09:56:23;;;;;;;0.68;0.50;;;22.60;49.40;;;;;;5033317;28;20132;-55
2021/11/23 09:58:59;;;;;;;0.70;0.60;;;22.70;49.50;;;;;;5034518;28;20029;-60
2021/11/23 10:01:28;;;;;;;1.35;0.60;;;22.70;49.40;;;;;;5038850;28;20029;-60
2021/11/23 10:03:56;;;;;;;;;;;22.70;49.40;;;;;;5032714;28;20116;-57
2021/11/23 10:06:24;;;;;;;0.60;0.50;;;22.70;49.40;;;;;;5035833;28;19913;-58
2021/11/23 10:08:52;;;;;;;0.70;0.60;;;22.70;49.40;;;;;;5038439;28;20115;-59
2021/11/23 10:11:29;;;;;;;0.80;0.57;;;22.70;49.40;;;;;;5040369;28;20079;-60
2021/11/23 10:14:00;;;;;;;1.30;0.68;;;22.70;49.40;;;;;;5033659;28;20138;-56
2021/11/23 10:16:40;;;;;;;1.45;0.60;;;22.70;49.50;;;;;;5036353;28;20112;-57
2021/11/23 10:19:09;;;;;;;0.90;0.60;;;22.70;49.40;;;;;;5037346;28;20048;-59
2021/11/23 10:21:35;;;;;;;0.77;0.60;;;22.70;49.40;;;;;;5032420;28;20474;-60
2021/11/23 10:24:01;;;;;;;0.93;0.47;;;22.70;49.40;;;;;;5030140;28;20466;-60
2021/11/23 10:26:30;;;;;;;0.77;0.60;;;22.80;49.50;;;;;;5035623;28;20029;-59
2021/11/23 10:28:59;;;;;;;0.85;0.60;;;22.70;49.40;;;;;;5035558;28;20450;-58
2021/11/23 10:31:31;;;;;;;1.00;0.60;;;22.70;49.40;;;;;;5035704;28;20427;-60
2021/11/23 10:34:02;;;;;;;0.88;0.60;;;22.80;49.60;;;;;;5036273;28;20030;-57
2021/11/23 10:36:30;;;;;;;0.75;0.60;;;22.70;49.50;;;;;;5034193;28;20099;-59
2021/11/23 10:39:04;;;;;;;1.00;0.60;;;22.80;49.50;;;;;;5034846;28;20048;-60
2021/11/23 10:41:33;;;;;;;1.08;0.60;;;22.80;49.40;;;;;;5031589;28;20025;-56
2021/11/23 10:43:59;;;;;;;1.25;0.68;;;22.80;49.40;;;;;;5034877;28;20048;-54
2021/11/23 10:46:27;;;;;;;0.80;0.60;;;22.80;49.40;;;;;;5036279;28;20033;-59
2021/11/23 10:48:56;;;;;;;0.87;0.70;;;22.80;49.40;;;;;;5029370;28;20028;-57
2021/11/23 10:51:23;;;;;;;1.48;0.60;;;22.80;49.30;;;;;;5035551;28;20052;-59
2021/11/23 10:53:49;;;;;;;0.82;0.70;;;22.80;49.50;;;;;;5032297;28;20079;-59
2021/11/23 10:56:18;;;;;;;0.80;0.50;;;22.80;49.50;;;;;;5033678;28;20036;-58
2021/11/23 10:58:46;;;;;;;1.00;0.65;;;22.80;49.50;;;;;;5030756;28;20037;-59
2021/11/23 11:01:13;;;;;;;1.35;0.70;;;22.80;49.50;;;;;;5028382;28;20081;-60
2021/11/23 11:03:41;;;;;;;1.48;0.70;;;22.90;49.60;;;;;;5032217;28;20493;-59
2021/11/23 11:06:08;;;;;;;1.88;0.70;;;22.80;49.40;;;;;;5027746;28;20099;-58
2021/11/23 11:08:37;;;;;;;1.33;0.60;;;22.90;49.40;;;;;;5035321;28;20446;-59
2021/11/23 11:11:05;;;;;;;1.13;0.65;;;22.80;49.50;;;;;;5033614;28;20167;-59
2021/11/23 11:13:32;;;;;;;1.27;0.70;;;22.80;49.50;;;;;;5029925;28;20040;-60
2021/11/23 11:15:59;;;;;;;0.60;0.50;;;22.80;49.50;;;;;;5035553;28;20059;-59
2021/11/23 11:18:26;;;;;;;1.30;0.63;;;22.90;49.60;;;;;;5031639;28;20515;-59
2021/11/23 11:21:02;;;;;;;1.42;0.70;;;22.90;49.60;;;;;;5034489;28;20208;-58
2021/11/23 11:23:33;;;;;;;3.60;1.10;;;22.90;49.80;;;;;;5034635;28;20037;-57
2021/11/23 11:28:55;;;;;;;2.00;0.75;;;22.90;49.80;;;;;;5036893;28;20025;-58
2021/11/23 11:31:46;;;;;;;1.10;0.68;;;22.90;49.90;;;;;;5031979;28;20034;-58
2021/11/23 11:34:23;;;;;;;1.90;1.00;;;22.90;49.90;;;;;;5031597;28;20029;-58
2021/11/23 11:37:02;;;;;;;1.30;0.60;;;22.90;50.10;;;;;;5032697;28;20135;-60
2021/11/23 11:39:40;;;;;;;2.00;0.80;;;22.90;50.00;;;;;;5027526;28;20481;-59
2021/11/23 11:42:11;;;;;;;1.92;0.80;;;22.90;50.10;;;;;;5034843;28;20028;-59
2021/11/23 11:44:38;;;;;;;1.88;0.90;;;22.90;50.10;;;;;;5032336;28;20112;-60
2021/11/23 11:47:07;;;;;;;2.50;0.98;;;22.90;50.00;;;;;;5030086;28;20504;-59
2021/11/23 11:49:53;;;;;;;3.83;0.98;;;23.00;50.00;;;;;;5032355;28;20036;-58
2021/11/23 11:52:21;;;;;;;1.73;0.80;;;23.00;50.00;;;;;;5034468;28;20029;-59
2021/11/23 11:55:12;;;;;;;1.98;0.90;;;23.10;50.10;;;;;;5028902;28;20171;-59
2021/11/23 11:57:46;;;;;;;2.65;0.80;;;23.00;50.00;;;;;;5044411;28;20045;-56
2021/11/23 12:00:33;;;;;;;2.33;0.93;;;23.00;50.60;;;;;;5037746;28;20071;-59
2021/11/23 12:03:25;;;;;;;1.98;1.00;;;23.00;50.10;;;;;;5034187;28;20033;-57
2021/11/23 12:05:52;;;;;;;2.35;1.00;;;23.10;50.10;;;;;;5026128;28;20029;-58
2021/11/23 12:08:33;;;;;;;2.08;0.90;;;23.10;50.10;;;;;;5028254;28;21212;-59
2021/11/23 12:11:01;;;;;;;2.50;0.95;;;23.10;50.10;;;;;;5032034;28;20134;-59
2021/11/23 12:13:54;;;;;;;2.38;1.02;;;23.10;50.10;;;;;;5032667;28;20037;-57
2021/11/23 12:16:38;;;;;;;2.40;0.93;;;23.10;50.10;;;;;;5030478;28;20032;-54
2021/11/23 12:19:37;;;;;;;2.33;0.90;;;23.10;50.00;;;;;;5027634;28;20033;-57
2021/11/23 12:22:04;;;;;;;2.53;1.00;;;23.10;50.10;;;;;;5027765;28;20536;-58
2021/11/23 12:24:32;;;;;;;3.03;0.90;;;23.10;50.00;;;;;;5024899;28;20086;-58
2021/11/23 12:27:14;;;;;;;3.13;1.23;;;23.10;50.00;;;;;;5027113;28;20037;-58
2021/11/23 12:29:40;;;;;;;1.85;0.85;;;23.10;50.00;;;;;;5031820;28;20032;-57
2021/11/23 12:32:06;;;;;;;2.50;1.10;;;23.10;50.00;;;;;;5029269;28;20522;-58
2021/11/23 12:34:32;;;;;;;2.50;1.10;;;23.20;49.90;;;;;;5034634;28;20030;-59
2021/11/23 12:36:59;;;;;;;2.33;1.08;;;23.20;49.80;;;;;;5029711;28;20076;-58
2021/11/23 12:39:34;;;;;;;2.85;1.10;;;23.20;49.80;;;;;;5024366;28;20057;-54
2021/11/23 12:42:09;;;;;;;2.80;1.17;;;23.20;49.70;;;;;;5031819;28;20033;-57
2021/11/23 12:44:38;;;;;;;3.03;1.10;;;23.20;49.60;;;;;;5033141;28;20026;-58
2021/11/23 12:47:11;;;;;;;2.90;1.10;;;23.20;49.50;;;;;;5032362;28;20732;-59
2021/11/23 12:49:39;;;;;;;2.97;1.10;;;23.20;49.60;;;;;;5034562;28;20551;-55
2021/11/23 12:52:05;;;;;;;2.25;0.80;;;23.20;49.60;;;;;;5029543;28;20612;-58